ADDS TAF Board (Experimental) INFO

IDs: Format: Expanded Condensed

Updated at: 1814 UTC 25 Oct 2014

KATL - Atlanta/Hartsfield-J, GA, US

Issued at 1733 UTC 25 Oct 2014
Time1752Z25/19Z25/20Z25/21Z25/22Z25/23Z26/00Z26/01Z26/02Z26/03Z26/04Z26/05Z26/06Z26/07Z
TypeOBSPRVLPRVLPRVLPRVLPRVLPRVLPRVLPRVLPRVLPRVLPRVLPRVLPRVL
VIS10>6>6>6>6>6>6>6>6>6>6>6>6>6
CIG----------------------------
CoverCLRSKCSKCSKCSKCSKCSKCSKCFEWFEWFEWFEWFEWFEW
FltCat--VFRVFRVFRVFRVFRVFRVFRVFRVFRVFRVFRVFRVFR
WX----------------------------
WDir360340340340340340340340310310310310310310
WSpd47777777444444
WGst----------------------------
R08/26
XWnd47777777333333
HWnd-0-2-2-2-2-2-2-2-3-3-3-3-3-3
R09/27
XWnd47777777333333
HWnd-0-2-2-2-2-2-2-2-3-3-3-3-3-3
R10/28
XWnd47777777333333
HWnd-0-2-2-2-2-2-2-2-3-3-3-3-3-3
Raw TAF
KATL 251733Z 2518/2624 34007KT P6SM SKC
  FM260200 31004KT P6SM FEW025
  FM261300 33008KT P6SM FEW250
  FM261800 32006KT P6SM SKC


Raw METAR
KATL 251752Z 36004KT 10SM CLR 23/04 A3005 RMK AO2 SLP171 T02280039 10228 20089 58010

TAF Board Legend

Hazard VFR MVFR IFR LIFR
Visibility (sm) >5 3≤X≤5 1≤X<3 <1
Ceiling (100 ft) >30 10≤X≤30 5≤X<10 <5
Wind Speed (kt) <10 10≤X<20 20≤X<30 ≥30
Wind Gust (kt) <15 15≤X<25 25≤X<35 ≥35
Weather No Wx Reported VCTS,-TS,-FZRA TS,FZRA +TS,+FZRA


Page loaded:  18:14 UTC  |   11:14 AM Pacific  |   12:14 PM Mountain  |   01:14 PM Central  |   02:14 PM Eastern

 

ADVISORIES

FORECASTS

FORECASTS

OBSERVATIONS

USER TOOLS

ABOUT US